Moapa Valley, Nevada Weather observations

Data are for 10 minute period ending at time listed.
 Day   Time   Solar   Ave.   Ave.  Ave.  Vector  Max.   Baro.   Total    
  of    of     Rad.   Air    Rel.  Wind   Wind   Wind  Press.  Precip.   
Year   Day            Temp.  Hum.  Speed  Dir.   Gust                    
2016   (PST)  Kw/m2    F      %     mph   deg.    mph    mb.     in.     
-------------------------------------------------------------------------
  42   12:50   0.80   71.2    19    2.3   262     3.8   975.7    0.00 
  42   13:00   0.79   71.9    19    2.1   251     4.2   975.6    0.00 
  42   13:10   0.77   72.6    18    1.6     9     2.4   975.4    0.00 
  42   13:20   0.76   72.2    18    2.0    61     3.5   975.2    0.00 
  42   13:30   0.74   71.8    19    1.9    19     2.8   975.1    0.00 
  42   13:40   0.72   72.3    19    1.9     6     3.8   975.0    0.00 
  42   13:50   0.69   73.3    17    1.6    13     3.5   974.8    0.00 
  42   14:00   0.67   73.0    18    2.5   205     4.6   974.7    0.00 
  42   14:10   0.64   73.3    18    2.0   204     3.8   974.6    0.00 
  42   14:20   0.61   73.0    19    2.5   196     3.8   974.5    0.00 
  42   14:30   0.58   75.1    17    1.4   307     3.1   974.4    0.00 
  42   14:40   0.55   74.2    18    2.2   119     3.8   974.3    0.00 
  42   14:50   0.52   74.9    17    1.6    23     2.8   974.3    0.00 
  42   15:00   0.48   76.3    17    1.9   234     4.2   974.3    0.00 
  42   15:10   0.42   74.7    17    2.0   206     3.5   974.3    0.00 
  42   15:20   0.40   76.2    17    1.4   181     2.4   974.2    0.00 
  42   15:30   0.34   75.3    18    1.4   117     2.1   974.1    0.00 
  42   15:40   0.33   74.7    18    1.7    62     2.4   974.1    0.00 
  42   15:50   0.31   75.9    17    1.0   335     1.3   974.1    0.00 
  42   16:00   0.26   76.2    16    0.5    43     1.7   974.1    0.00 
  42   16:10   0.24   77.7    17    0.6   314     1.3   974.1    0.00 
  42   16:20   0.20   76.7    17    0.3   311     1.0   974.1    0.00 
  42   16:30   0.17   78.2    18    0.0     0     0.0   974.1    0.00 
  42   16:40   0.10   76.0    15    0.3   308     1.0   974.1    0.00 
  42   16:50   0.06   73.0    17    0.1   310     1.0   974.2    0.00 
  42   17:00   0.06   70.2    23    1.0   273     1.7   974.2    0.00 
  42   17:10   0.02   66.9    25    0.8   228     1.7   974.3    0.00 
  42   17:20   0.01   64.2    30    0.0   268     1.0   974.3    0.00 
  42   17:30   0.00   60.8    33    1.1    14     1.7   974.4    0.00 
  42   17:40   0.00   60.0    34    0.4   342     1.7   974.4    0.00 
  42   17:50   0.00   58.6    37    1.5   358     2.1   974.5    0.00 
  42   18:00   0.00   55.6    46    0.9    91     2.8   974.6    0.00 
  42   18:10   0.00   54.1    46    1.7   329     3.5   974.8    0.00 
  42   18:20   0.00   53.5    47    1.6   331     2.1   974.9    0.00 
  42   18:30   0.00   53.2    49    1.9   329     2.4   974.9    0.00 
  42   18:40   0.00   52.6    51    2.1   318     2.8   975.1    0.00 
  42   18:50   0.00   51.4    53    2.1   314     2.4   975.2    0.00 
  42   19:00   0.00   50.5    54    2.1   310     3.1   975.3    0.00 
  42   19:10   0.00   49.1    56    1.1   299     2.1   975.3    0.00 
  42   19:20   0.00   49.3    56    1.6   303     2.1   975.3    0.00 
  42   19:30   0.00   47.8    59    1.7   295     2.4   975.4    0.00 
  42   19:40   0.00   47.7    61    1.7   321     2.4   975.4    0.00 
  42   19:50   0.00   47.7    60    1.6   348     2.4   975.4    0.00 
  42   20:00   0.00   46.7    63    1.8   303     2.8   975.5    0.00 
  42   20:10   0.00   45.8    65    2.0   296     2.8   975.6    0.00 
  42   20:20   0.00   45.6    64    2.2   330     3.1   975.7    0.00 
  42   20:30   0.00   45.6    65    1.9   310     2.8   975.8    0.00 
  42   20:40   0.00   44.7    66    1.9   300     2.4   975.8    0.00 
  42   20:50   0.00   44.3    66    2.3   314     2.8   975.9    0.00 
  42   21:00   0.00   45.4    63    3.2   311     3.8   975.8    0.00 
  42   21:10   0.00   46.5    61    1.9   314     3.1   975.9    0.00 
  42   21:20   0.00   44.5    66    1.2   302     2.1   975.9    0.00 
  42   21:30   0.00   43.4    68    1.1    31     2.4   976.0    0.00 
  42   21:40   0.00   42.4    70    0.6   295     1.3   976.0    0.00 
  42   21:50   0.00   42.1    69    0.8   314     1.7   976.1    0.00 
  42   22:00   0.00   41.0    72    0.2   270     1.0   976.1    0.00 
  42   22:10   0.00   40.8    73    0.8   328     2.1   976.2    0.00 
  42   22:20   0.00   41.7    71    2.3   345     3.1   976.3    0.00 
  42   22:30   0.00   42.3    73    2.0   320     2.4   976.3    0.00 
  42   22:40   0.00   43.1    68    2.5   278     3.1   976.2    0.00 
  42   22:50   0.00   42.2    71    2.8   269     4.2   976.3    0.00 
  42   23:00   0.00   42.9    68    3.1   280     4.2   976.3    0.00 
  42   23:10   0.00   43.4    66    2.8   285     3.5   976.4    0.00 
  42   23:20   0.00   44.0    65    3.3   285     3.8   976.4    0.00 
  42   23:30   0.00   43.7    66    2.8   281     3.5   976.4    0.00 
  42   23:40   0.00   42.8    68    2.2   271     3.1   976.4    0.00 
  42   23:50   0.00   42.8    68    2.6   263     3.1   976.4    0.00 
  43    0:00   0.00   41.4    70    2.5   302     3.5   976.4    0.00 
  43    0:10   0.00   40.9    72    2.7   277     3.5   976.4    0.00 
  43    0:20   0.00   41.6    70    2.6   277     3.5   976.4    0.00 
  43    0:30   0.00   41.3    71    2.8   273     3.5   976.5    0.00 
  43    0:40   0.00   40.8    72    2.4   273     2.8   976.5    0.00 
  43    0:50   0.00   40.5    72    3.0   283     3.8   976.5    0.00 
  43    1:00   0.00   42.0    70    3.1   272     4.2   976.5    0.00 
  43    1:10   0.00   41.9    70    3.3   271     3.8   976.5    0.00 
  43    1:20   0.00   41.6    70    2.1   280     3.1   976.5    0.00 
  43    1:30   0.00   39.5    75    1.6   290     2.4   976.6    0.00 
  43    1:40   0.00   41.2    71    3.0   266     3.8   976.6    0.00 
  43    1:50   0.00   40.9    71    1.2   261     3.1   976.8    0.00 
  43    2:00   0.00   38.8    75    1.4   309     2.4   976.8    0.00 
  43    2:10   0.00   39.5    73    2.7   295     3.5   976.6    0.00 
  43    2:20   0.00   40.2    71    2.8   280     3.8   976.6    0.00 
  43    2:30   0.00   41.3    68    2.5   290     3.5   976.6    0.00 
  43    2:40   0.00   40.6    70    3.2   298     4.6   976.6    0.00 
  43    2:50   0.00   41.0    70    2.2   308     4.9   976.7    0.00 
  43    3:00   0.00   38.2    75    1.2    95     2.1   976.7    0.00 
  43    3:10   0.00   38.1    78    1.5   246     2.8   976.7    0.00 
  43    3:20   0.00   40.5    72    3.0   270     3.8   976.6    0.00 
  43    3:30   0.00   42.1    67    3.4   283     4.6   976.6    0.00 
  43    3:40   0.00   40.5    69    1.8    57     2.8   976.6    0.00 
  43    3:50   0.00   37.6    79    1.2    51     2.4   976.6    0.00 
  43    4:00   0.00   38.5    76    1.2   339     1.7   976.6    0.00 
  43    4:10   0.00   38.3    76    2.4   288     3.8   976.7    0.00 
  43    4:20   0.00   40.2    72    2.9   268     3.8   976.7    0.00 
  43    4:30   0.00   40.6    70    1.7   257     3.1   976.7    0.00 
  43    4:40   0.00   38.2    74    1.1   254     2.4   976.8    0.00 
  43    4:50   0.00   38.9    74    2.7   270     3.5   976.8    0.00 
  43    5:00   0.00   39.4    72    3.3   270     4.6   976.9    0.00 
  43    5:10   0.00   40.3    71    4.9   271     6.0   977.0    0.00 
  43    5:20   0.00   41.1    69    4.4   283     6.3   977.1    0.00 
  43    5:30   0.00   40.5    71    3.4   288     4.6   977.2    0.00 
  43    5:40   0.00   39.6    73    2.0   293     3.1   977.2    0.00 
  43    5:50   0.00   40.0    71    2.7   272     3.5   977.2    0.00 
  43    6:00   0.00   39.9    71    2.6   276     3.8   977.2    0.00 
  43    6:10   0.00   39.1    72    1.6   352     3.1   977.2    0.00 
  43    6:20   0.00   38.3    74    2.4   290     4.2   977.4    0.00 
  43    6:30   0.00   38.5    74    3.0   296     3.8   977.4    0.00 
  43    6:40   0.01   39.0    73    3.3   275     4.2   977.5    0.00 
  43    6:50   0.05   39.7    72    2.5   280     4.2   977.6    0.00 
  43    7:00   0.08   41.3    69    3.2   261     4.6   977.7    0.00 
  43    7:10   0.12   43.0    66    4.1   263     5.6   977.8    0.00 
  43    7:20   0.15   43.1    66    4.5   265     5.6   977.8    0.00 
  43    7:30   0.19   43.9    66    4.3   265     5.6   977.8    0.00 
  43    7:40   0.22   45.4    63    3.9   265     4.9   977.8    0.00 
  43    7:50   0.26   47.1    60    3.4   266     4.9   977.9    0.00 
  43    8:00   0.30   48.6    59    3.1   287     4.2   977.9    0.00 
  43    8:10   0.34   50.0    58    4.6   317     8.8   978.0    0.00 
  43    8:20   0.38   51.3    54    5.9   322     9.9   978.0    0.00 
  43    8:30   0.42   52.1    52    5.8   321    10.3   978.1    0.00 
  43    8:40   0.46   52.9    50    5.8   316     8.8   978.2    0.00 
  43    8:50   0.49   53.9    47    6.1   315     9.6   978.2    0.00 
  43    9:00   0.53   54.7    47    5.0   328     7.4   978.2    0.00 
  43    9:10   0.56   55.8    46    5.6   329     7.8   978.1    0.00 
  43    9:20   0.59   56.7    43    5.9   320     8.8   978.1    0.00 
  43    9:30   0.62   57.3    40    6.5   303     9.6   978.1    0.00 
  43    9:40   0.65   58.1    39    5.6   309     8.1   978.0    0.00 
  43    9:50   0.68   59.6    38    5.0   299     8.5   978.0    0.00 
  43   10:00   0.70   60.7    36    4.4   308     7.1   978.0    0.00 
  43   10:10   0.72   61.5    34    4.8   290     7.4   978.0    0.00 
  43   10:20   0.74   61.7    34    5.0   326     7.8   977.9    0.00 
  43   10:30   0.76   62.5    32    4.5   353     7.1   977.8    0.00 
  43   10:40   0.77   63.1    31    4.7   345     7.1   977.7    0.00 
  43   10:50   0.79   63.5    29    4.2     2     8.1   977.5    0.00 
  43   11:00   0.81   64.1    28    3.8   333     6.7   977.4    0.00 
  43   11:10   0.82   65.5    27    3.0   307     7.4   977.2    0.00 
  43   11:20   0.83   66.8    26    2.5   327     6.3   977.0    0.00 
  43   11:30   0.84   67.8    26    2.5   329     5.6   976.8    0.00 
  43   11:40   0.84   68.3    24    2.7    17     6.0   976.6    0.00 
  43   11:50   0.85   68.0    23    3.0    10     6.3   976.4    0.00 
  43   12:00   0.84   68.3    23    2.5    29     4.9   976.2    0.00 
  43   12:10   0.82   69.3    23    2.7   316     4.6   975.9    0.00 
  43   12:20   0.84   69.9    21    2.3    84     3.8   975.7    0.00 
  43   12:30   0.81   70.5    22    2.4   348     4.6   975.5    0.00 
  43   12:40   0.83   71.3    21    1.9   324     3.5   975.2    0.00 

Return to Moapa Valley graphs page.


Western Regional Climate Center,wrcc@dri.edu